Time;durP1;ratioP1;P1;durP2;ratioP2;P2;SDS_P1;SDS_P2;PMS_P1;PMS_P2;Temp;Humidity;BMP_temperature;BMP_pressure;BME280_temperature;BME280_humidity;BME280_pressure;Samples;Min_cycle;Max_cycle;Signal;HPM_P1;HPM_P2
2024/03/28 00:01:49;;;;;;;7.47;7.17;;;8.50;29.70;;;;;;4900994;29;20445;-84
2024/03/28 00:04:36;;;;;;;7.00;6.70;;;8.40;29.50;;;;;;4894402;29;20934;-84
2024/03/28 00:07:50;;;;;;;6.90;6.60;;;8.50;29.70;;;;;;4854601;29;20481;-84
2024/03/28 00:11:11;;;;;;;7.23;6.93;;;8.80;29.70;;;;;;4866508;29;20524;-84
2024/03/28 00:14:17;;;;;;;7.10;6.90;;;8.80;27.50;;;;;;4884578;29;20473;-84
2024/03/28 00:17:10;;;;;;;7.27;7.07;;;8.70;28.40;;;;;;4917164;29;20492;-84
2024/03/28 00:20:31;;;;;;;;;;;;;;;;;;;;;
2024/03/28 00:23:55;;;;;;;7.20;6.90;;;8.80;27.20;;;;;;4916665;29;20507;-84
2024/03/28 00:27:34;;;;;;;7.37;7.00;;;8.80;27.70;;;;;;4877149;29;20525;-84
2024/03/28 00:31:20;;;;;;;7.17;6.97;;;8.90;27.60;;;;;;4896760;29;20799;-84
2024/03/28 00:34:16;;;;;;;7.00;6.80;;;9.10;26.40;;;;;;4909671;29;20485;-85
2024/03/28 00:36:51;;;;;;;7.47;7.17;;;9.30;27.30;;;;;;4914588;29;20452;-84
2024/03/28 00:40:05;;;;;;;7.03;6.83;;;9.30;26.20;;;;;;4910317;29;20779;-84
2024/03/28 00:43:40;;;;;;;6.80;6.50;;;9.10;26.00;;;;;;4897633;29;20429;-84
2024/03/28 00:50:02;;;;;;;8.00;7.47;;;8.70;26.70;;;;;;4884704;29;20476;-84
2024/03/28 00:53:21;;;;;;;8.20;7.80;;;8.90;26.70;;;;;;4870265;29;20440;-84
2024/03/28 00:56:36;;;;;;;7.40;7.10;;;8.80;25.70;;;;;;4858905;29;20455;-84
2024/03/28 01:00:18;;;;;;;7.90;7.50;;;8.60;26.10;;;;;;4853151;29;20416;-84
2024/03/28 01:10:20;;;;;;;6.10;5.90;;;8.40;27.30;;;;;;4751499;30;20452;-84
2024/03/28 01:13:40;;;;;;;6.60;6.40;;;8.30;26.70;;;;;;4756990;30;20420;-83
2024/03/28 01:16:54;;;;;;;7.50;7.20;;;8.30;27.10;;;;;;4718058;30;20431;-84
2024/03/28 01:20:26;;;;;;;7.40;7.10;;;8.30;26.90;;;;;;4718773;30;20458;-84
2024/03/28 01:23:35;;;;;;;6.93;6.60;;;8.30;26.60;;;;;;4717918;30;20508;-83
2024/03/28 01:26:39;;;;;;;7.70;7.30;;;8.20;27.10;;;;;;4786997;30;20431;-84
2024/03/28 01:29:55;;;;;;;7.17;6.87;;;8.20;27.30;;;;;;4775493;30;20467;-83
2024/03/28 01:33:21;;;;;;;8.20;7.80;;;8.30;26.10;;;;;;4776361;29;20892;-84
2024/03/28 01:37:04;;;;;;;6.60;6.40;;;8.40;26.00;;;;;;4845428;29;20447;-84
2024/03/28 01:40:07;;;;;;;7.63;7.07;;;8.20;26.50;;;;;;4792318;29;20443;-84
2024/03/28 01:43:18;;;;;;;7.30;7.00;;;8.30;26.80;;;;;;4791552;29;20430;-83
2024/03/28 01:47:10;;;;;;;8.13;7.83;;;8.20;26.10;;;;;;4815077;29;20433;-84
2024/03/28 01:49:53;;;;;;;7.33;7.03;;;8.10;26.10;;;;;;4847688;29;20416;-84
2024/03/28 01:52:48;;;;;;;7.10;6.80;;;8.20;26.10;;;;;;4845590;29;20412;-83
2024/03/28 01:55:52;;;;;;;7.60;7.40;;;8.40;25.60;;;;;;4894344;29;20562;-83
2024/03/28 01:58:32;;;;;;;7.73;7.43;;;8.40;25.40;;;;;;4884629;29;20553;-82
2024/03/28 02:01:38;;;;;;;7.30;7.00;;;8.40;25.20;;;;;;4898528;29;20499;-84
2024/03/28 02:04:58;;;;;;;7.00;6.70;;;8.40;25.10;;;;;;4900859;29;20414;-84
2024/03/28 02:08:04;;;;;;;7.67;7.37;;;8.40;24.60;;;;;;4900724;29;20492;-83
2024/03/28 02:11:10;;;;;;;6.90;6.70;;;8.30;25.80;;;;;;4891130;29;20501;-84
2024/03/28 02:14:23;;;;;;;7.70;7.40;;;8.30;24.90;;;;;;4883909;29;20435;-84
2024/03/28 02:17:21;;;;;;;7.20;7.00;;;8.10;25.50;;;;;;4886366;29;21019;-83
2024/03/28 02:20:08;;;;;;;8.00;7.33;;;7.90;25.50;;;;;;4893388;29;20526;-83
2024/03/28 02:22:43;;;;;;;7.37;7.07;;;7.90;25.80;;;;;;4863987;29;20443;-84
2024/03/28 02:25:57;;;;;;;7.60;7.30;;;7.80;26.20;;;;;;4853571;29;20427;-84
2024/03/28 02:29:01;;;;;;;7.60;7.30;;;7.70;26.10;;;;;;4864422;29;20452;-84
2024/03/28 02:32:26;;;;;;;7.27;7.00;;;7.80;26.10;;;;;;4879152;29;20433;-83
2024/03/28 02:35:34;;;;;;;8.10;7.80;;;7.90;25.90;;;;;;4887885;29;20430;-84
2024/03/28 02:38:50;;;;;;;;;;;;;;;;;;;;;
2024/03/28 02:41:56;;;;;;;7.70;7.40;;;7.90;26.20;;;;;;4867039;29;20418;-84
2024/03/28 02:44:47;;;;;;;7.67;7.40;;;7.80;25.40;;;;;;4875963;29;20465;-84
2024/03/28 02:47:47;;;;;;;8.17;7.87;;;7.90;25.10;;;;;;4864894;29;20458;-84
2024/03/28 02:51:05;;;;;;;7.27;7.07;;;7.90;25.50;;;;;;4884850;29;20429;-84
2024/03/28 02:53:56;;;;;;;7.80;7.50;;;7.90;25.90;;;;;;4885539;29;20441;-85
2024/03/28 03:00:38;;;;;;;7.13;6.83;;;8.40;24.70;;;;;;4867025;29;20434;-85
2024/03/28 03:03:22;;;;;;;6.90;6.60;;;8.50;24.30;;;;;;4890702;29;20469;-84
2024/03/28 03:06:21;;;;;;;6.97;6.77;;;8.80;24.20;;;;;;4857224;29;20430;-85
2024/03/28 03:09:22;;;;;;;7.47;7.10;;;9.00;24.00;;;;;;4878150;29;20439;-84
2024/03/28 03:13:03;;;;;;;7.00;6.80;;;9.10;23.40;;;;;;4860920;29;20424;-85
2024/03/28 03:16:21;;;;;;;7.27;7.00;;;8.90;22.40;;;;;;4840773;29;20444;-84
2024/03/28 03:19:20;;;;;;;6.93;6.73;;;8.10;24.80;;;;;;4857059;29;20484;-85
2024/03/28 03:22:31;;;;;;;7.27;6.97;;;7.70;25.50;;;;;;4842975;29;20432;-84
2024/03/28 03:26:19;;;;;;;6.97;6.77;;;7.30;26.30;;;;;;4838926;29;20427;-85
2024/03/28 03:36:09;;;;;;;8.07;7.77;;;7.10;27.60;;;;;;4794389;30;20420;-84
2024/03/28 03:42:14;;;;;;;7.93;7.63;;;7.60;26.50;;;;;;4847941;29;20427;-85
2024/03/28 03:45:53;;;;;;;7.63;7.40;;;7.80;25.70;;;;;;4855925;29;20460;-84
2024/03/28 03:55:39;;;;;;;8.20;7.90;;;8.30;23.80;;;;;;4840981;29;20447;-84
2024/03/28 03:58:40;;;;;;;8.57;8.17;;;8.40;23.60;;;;;;4838984;29;20472;-84
2024/03/28 04:01:53;;;;;;;7.53;7.23;;;8.40;23.20;;;;;;4852696;29;20438;-84
2024/03/28 04:04:49;;;;;;;8.90;8.50;;;8.20;22.80;;;;;;4865542;29;20436;-83
2024/03/28 04:10:52;;;;;;;8.70;8.40;;;7.40;24.80;;;;;;4912192;29;20445;-84
2024/03/28 04:13:41;;;;;;;9.63;9.23;;;7.40;24.40;;;;;;4889053;29;20430;-84
2024/03/28 04:16:17;;;;;;;9.10;8.70;;;7.30;24.70;;;;;;4905128;29;20425;-84
2024/03/28 04:18:50;;;;;;;8.50;8.10;;;7.10;25.00;;;;;;4898139;29;20878;-84
2024/03/28 04:21:54;;;;;;;8.40;8.10;;;7.10;25.40;;;;;;4889510;29;20571;-83
2024/03/28 04:24:58;;;;;;;9.40;9.00;;;7.30;25.00;;;;;;4914387;29;20510;-85
2024/03/28 04:28:35;;;;;;;8.97;8.57;;;7.50;25.20;;;;;;4903540;29;20440;-84
2024/03/28 04:31:28;;;;;;;8.87;8.57;;;7.80;24.70;;;;;;4902300;29;20450;-84
2024/03/28 04:38:37;;;;;;;9.40;9.00;;;8.60;23.20;;;;;;4843156;29;20475;-84
2024/03/28 04:41:04;;;;;;;9.47;8.97;;;8.90;21.90;;;;;;4845397;29;20433;-84
2024/03/28 04:43:31;;;;;;;9.27;8.97;;;9.00;22.20;;;;;;4832552;29;20443;-83
2024/03/28 04:46:30;;;;;;;10.13;9.73;;;9.10;21.00;;;;;;4854095;29;20428;-84
2024/03/28 04:50:00;;;;;;;8.77;8.33;;;9.10;20.30;;;;;;4857589;29;20439;-84
2024/03/28 05:00:33;;;;;;;9.80;9.43;;;7.70;22.50;;;;;;4853021;29;20481;-83
2024/03/28 05:03:42;;;;;;;9.77;9.37;;;7.70;22.40;;;;;;4841043;29;20438;-83
2024/03/28 05:06:20;;;;;;;9.77;9.37;;;7.40;22.80;;;;;;4857626;29;20478;-84
2024/03/28 05:16:08;;;;;;;8.90;8.50;;;7.50;22.90;;;;;;4868784;29;20997;-85
2024/03/28 05:18:51;;;;;;;9.87;9.50;;;7.20;23.30;;;;;;4896204;23;20523;-79
2024/03/28 05:21:16;;;;;;;9.90;9.20;;;7.20;23.30;;;;;;4935323;29;20423;-78
2024/03/28 05:23:43;;;;;;;9.57;9.27;;;7.20;23.50;;;;;;4939856;29;20617;-78
2024/03/28 05:26:08;;;;;;;10.13;9.73;;;7.30;23.20;;;;;;4935464;29;20196;-80
2024/03/28 05:28:36;;;;;;;9.07;8.77;;;7.40;22.30;;;;;;4933030;29;20478;-78
2024/03/28 05:31:12;;;;;;;9.33;9.03;;;7.30;22.40;;;;;;4938308;29;20435;-82
2024/03/28 05:33:37;;;;;;;10.07;9.57;;;7.30;22.80;;;;;;4940256;29;20453;-82
2024/03/28 05:36:04;;;;;;;9.60;9.10;;;7.30;22.70;;;;;;4936388;29;20443;-83
2024/03/28 05:38:29;;;;;;;9.23;8.87;;;7.10;23.20;;;;;;4935067;29;20215;-83
2024/03/28 05:40:55;;;;;;;10.57;10.07;;;7.00;23.90;;;;;;4933658;29;20435;-83
2024/03/28 05:43:20;;;;;;;8.73;8.33;;;7.10;24.10;;;;;;4927803;29;20251;-80
2024/03/28 05:45:46;;;;;;;9.37;9.07;;;7.20;23.60;;;;;;4933615;29;20255;-80
2024/03/28 05:48:12;;;;;;;9.93;9.53;;;7.20;23.50;;;;;;4950998;29;20234;-83
2024/03/28 05:50:37;;;;;;;9.33;9.03;;;7.20;24.00;;;;;;4944630;29;20188;-83
2024/03/28 05:53:03;;;;;;;9.97;9.57;;;7.20;24.00;;;;;;4947700;29;20457;-81
2024/03/28 05:55:28;;;;;;;10.20;9.80;;;7.20;24.20;;;;;;4944877;29;20195;-78
2024/03/28 05:57:54;;;;;;;9.10;8.80;;;7.20;24.20;;;;;;4942488;29;20211;-81
2024/03/28 06:00:20;;;;;;;9.83;9.43;;;7.10;23.70;;;;;;4925083;29;20203;-79
2024/03/28 06:02:45;;;;;;;9.53;9.23;;;7.00;24.40;;;;;;4931020;29;20563;-81
2024/03/28 06:05:10;;;;;;;9.80;9.40;;;7.00;24.40;;;;;;4939562;29;20192;-79
2024/03/28 06:07:36;;;;;;;9.17;8.77;;;7.00;24.30;;;;;;4946886;28;20215;-79
2024/03/28 06:10:01;;;;;;;8.87;8.40;;;7.00;24.40;;;;;;4950227;29;20246;-80
2024/03/28 06:12:27;;;;;;;7.83;7.53;;;6.90;24.50;;;;;;4958007;29;20231;-81
2024/03/28 06:14:53;;;;;;;9.70;9.30;;;7.00;24.70;;;;;;4936788;29;20277;-79
2024/03/28 06:17:18;;;;;;;9.50;9.00;;;7.10;24.10;;;;;;4930549;29;20562;-80
2024/03/28 06:19:44;;;;;;;10.50;9.90;;;7.10;24.30;;;;;;4933222;29;20215;-81
2024/03/28 06:22:10;;;;;;;9.03;8.63;;;7.10;24.70;;;;;;4925117;29;20203;-81
2024/03/28 06:24:35;;;;;;;8.13;7.83;;;7.00;24.80;;;;;;4922188;29;20196;-82
2024/03/28 06:27:01;;;;;;;9.10;8.63;;;7.00;24.80;;;;;;4946401;29;20200;-78
2024/03/28 06:29:26;;;;;;;9.20;8.80;;;6.80;25.20;;;;;;4949879;29;20249;-79
2024/03/28 06:31:52;;;;;;;8.30;7.90;;;6.70;25.60;;;;;;4936645;29;20221;-80
2024/03/28 06:34:23;;;;;;;9.67;9.07;;;6.80;25.80;;;;;;4927895;29;20276;-81
2024/03/28 06:36:49;;;;;;;9.47;8.87;;;6.80;26.40;;;;;;4924311;29;20215;-79
2024/03/28 06:39:15;;;;;;;8.23;7.80;;;6.90;25.90;;;;;;4937365;29;20503;-79
2024/03/28 06:41:41;;;;;;;8.53;8.13;;;6.90;25.70;;;;;;4933532;29;20183;-80
2024/03/28 06:44:06;;;;;;;8.50;8.10;;;6.90;25.60;;;;;;4940184;29;21059;-79
2024/03/28 06:46:32;;;;;;;8.53;8.23;;;6.90;25.80;;;;;;4928706;29;20195;-79
2024/03/28 06:48:57;;;;;;;9.40;8.80;;;7.00;25.50;;;;;;4938546;29;20711;-78
2024/03/28 06:51:23;;;;;;;8.03;7.73;;;7.10;25.40;;;;;;4929855;29;20187;-80
2024/03/28 06:53:48;;;;;;;9.27;8.80;;;7.30;25.70;;;;;;4962556;29;20201;-78
2024/03/28 06:56:14;;;;;;;9.30;8.87;;;7.30;25.30;;;;;;4942776;29;20200;-79
2024/03/28 06:58:39;;;;;;;7.83;7.53;;;7.40;25.70;;;;;;4944279;29;20650;-80
2024/03/28 07:01:05;;;;;;;8.30;7.90;;;7.40;26.50;;;;;;4928754;29;20184;-79
2024/03/28 07:03:31;;;;;;;8.10;7.70;;;7.60;26.90;;;;;;4929024;29;20211;-81
2024/03/28 07:05:56;;;;;;;8.30;7.80;;;7.70;26.50;;;;;;4928811;29;20210;-80
2024/03/28 07:08:22;;;;;;;8.50;8.10;;;7.70;27.10;;;;;;4919157;29;20444;-79
2024/03/28 07:10:48;;;;;;;8.50;8.03;;;7.70;27.70;;;;;;4932591;29;20711;-80
2024/03/28 07:13:13;;;;;;;8.50;8.20;;;7.70;29.00;;;;;;4930781;29;20194;-80
2024/03/28 07:15:39;;;;;;;8.40;8.00;;;7.70;28.60;;;;;;4929527;29;20199;-80
2024/03/28 07:18:05;;;;;;;8.60;8.23;;;7.80;29.20;;;;;;4938428;29;20216;-78
2024/03/28 07:20:30;;;;;;;8.07;7.77;;;7.80;28.30;;;;;;4929572;29;20180;-79
2024/03/28 07:22:56;;;;;;;8.40;8.10;;;7.90;29.10;;;;;;4937339;29;20451;-81
2024/03/28 07:25:21;;;;;;;9.93;9.53;;;7.90;29.10;;;;;;4936814;29;20200;-80
2024/03/28 07:27:47;;;;;;;9.33;8.90;;;7.70;29.60;;;;;;4928429;29;20219;-80
2024/03/28 07:30:13;;;;;;;9.00;8.60;;;7.70;30.50;;;;;;4924809;29;20184;-81
2024/03/28 07:32:38;;;;;;;11.53;10.90;;;7.80;31.30;;;;;;4942216;29;20190;-80
2024/03/28 07:35:05;;;;;;;11.00;10.40;;;7.80;31.90;;;;;;4907509;29;20248;-79
2024/03/28 07:37:31;;;;;;;9.30;8.90;;;7.90;31.90;;;;;;4928426;29;20207;-80
2024/03/28 07:39:56;;;;;;;9.93;9.53;;;8.00;30.80;;;;;;4935559;29;20796;-80
2024/03/28 07:42:22;;;;;;;10.07;9.67;;;8.00;30.80;;;;;;4953983;29;20846;-79
2024/03/28 07:44:47;;;;;;;11.23;10.47;;;8.10;30.90;;;;;;4936359;29;20196;-80
2024/03/28 07:47:13;;;;;;;10.57;10.17;;;8.10;30.50;;;;;;4929357;29;20191;-80
2024/03/28 07:49:38;;;;;;;10.47;9.97;;;8.00;30.80;;;;;;4956372;29;20207;-80
2024/03/28 07:52:04;;;;;;;10.00;9.60;;;8.10;30.90;;;;;;4956639;29;20187;-79
2024/03/28 07:54:30;;;;;;;9.77;9.37;;;8.30;31.00;;;;;;4939424;29;20231;-79
2024/03/28 07:56:56;;;;;;;10.27;9.77;;;8.40;30.60;;;;;;4938518;29;20443;-79
2024/03/28 07:59:21;;;;;;;10.43;10.03;;;8.40;29.60;;;;;;4939154;29;20242;-79
2024/03/28 08:01:47;;;;;;;10.70;10.10;;;8.40;29.90;;;;;;4939100;29;20718;-79
2024/03/28 08:04:12;;;;;;;10.67;10.27;;;8.40;30.40;;;;;;4955123;29;20671;-79
2024/03/28 08:06:39;;;;;;;10.30;9.80;;;8.40;30.30;;;;;;4956711;29;20647;-80
2024/03/28 08:09:05;;;;;;;10.40;10.00;;;8.60;29.60;;;;;;4956990;29;20195;-80
2024/03/28 08:11:30;;;;;;;9.73;9.23;;;8.70;29.90;;;;;;4938233;29;20820;-81
2024/03/28 08:13:56;;;;;;;9.70;9.30;;;8.60;28.80;;;;;;4921015;29;20427;-79
2024/03/28 08:16:22;;;;;;;9.10;8.70;;;8.50;29.10;;;;;;4938289;29;20193;-80
2024/03/28 08:18:47;;;;;;;9.50;9.10;;;8.40;29.90;;;;;;4939839;29;20215;-80
2024/03/28 08:21:13;;;;;;;9.57;9.00;;;8.50;31.20;;;;;;4936592;29;20275;-80
2024/03/28 08:23:38;;;;;;;8.73;8.23;;;8.40;30.60;;;;;;4937640;29;20187;-80
2024/03/28 08:26:05;;;;;;;9.00;8.60;;;8.40;30.00;;;;;;4920419;29;20191;-80
2024/03/28 08:28:31;;;;;;;9.40;9.00;;;8.40;31.10;;;;;;4921001;29;20271;-80
2024/03/28 08:30:57;;;;;;;9.27;8.87;;;8.40;31.20;;;;;;4944978;29;20838;-80
2024/03/28 08:33:24;;;;;;;10.20;9.80;;;8.40;31.10;;;;;;4947349;29;20199;-80
2024/03/28 08:35:49;;;;;;;8.60;8.30;;;8.40;31.10;;;;;;4926983;29;20590;-79
2024/03/28 08:38:15;;;;;;;8.80;8.40;;;8.40;31.10;;;;;;4919804;29;20534;-80
2024/03/28 08:40:41;;;;;;;8.20;7.90;;;8.40;31.10;;;;;;4920402;29;20283;-80
2024/03/28 08:43:07;;;;;;;8.67;8.37;;;8.40;31.70;;;;;;4937070;29;20184;-79
2024/03/28 08:45:32;;;;;;;8.83;8.33;;;8.60;31.40;;;;;;4928155;29;20183;-80
2024/03/28 08:47:59;;;;;;;8.40;8.10;;;8.60;32.50;;;;;;4937921;29;20523;-78
2024/03/28 08:50:24;;;;;;;8.20;7.90;;;8.70;31.70;;;;;;4936146;29;20187;-80
2024/03/28 08:52:52;;;;;;;8.53;7.83;;;8.80;32.00;;;;;;4936498;29;20524;-79
2024/03/28 08:55:19;;;;;;;8.67;8.37;;;8.70;30.40;;;;;;4936393;29;20270;-79
2024/03/28 08:57:44;;;;;;;8.80;8.50;;;8.80;32.20;;;;;;4941931;29;20840;-79
2024/03/28 09:00:10;;;;;;;9.30;8.90;;;8.70;31.20;;;;;;4957053;29;20443;-79
2024/03/28 09:02:37;;;;;;;8.23;7.83;;;8.70;31.40;;;;;;4938287;29;20188;-79
2024/03/28 09:05:06;;;;;;;8.07;7.57;;;8.80;30.30;;;;;;4937588;29;20575;-80
2024/03/28 09:07:33;;;;;;;8.80;8.40;;;8.80;31.40;;;;;;4938624;29;20817;-79
2024/03/28 09:09:59;;;;;;;7.67;7.47;;;8.90;31.50;;;;;;4923974;29;20510;-79
2024/03/28 09:12:24;;;;;;;8.53;8.23;;;9.00;30.20;;;;;;4939454;29;20802;-80
2024/03/28 09:14:55;;;;;;;8.17;7.87;;;9.10;30.90;;;;;;4946253;29;20436;-78
2024/03/28 09:17:20;;;;;;;7.93;7.73;;;9.00;30.00;;;;;;4959082;29;20210;-80
2024/03/28 09:19:50;;;;;;;7.73;7.40;;;9.10;30.40;;;;;;4935631;29;20464;-80
2024/03/28 09:22:16;;;;;;;8.10;7.80;;;9.20;30.00;;;;;;4932430;29;20622;-79
2024/03/28 09:24:42;;;;;;;7.73;7.43;;;9.20;30.80;;;;;;4924990;29;20424;-79
2024/03/28 09:27:07;;;;;;;8.60;8.30;;;9.20;30.00;;;;;;4932417;29;20434;-81
2024/03/28 09:29:33;;;;;;;7.13;6.93;;;9.20;30.00;;;;;;4920861;29;20266;-79
2024/03/28 09:31:59;;;;;;;6.67;6.37;;;9.20;29.80;;;;;;4939518;29;20975;-80
2024/03/28 09:34:24;;;;;;;6.97;6.70;;;9.20;30.00;;;;;;4940137;29;20199;-80
2024/03/28 09:36:50;;;;;;;8.17;7.87;;;9.20;29.50;;;;;;4940388;29;20191;-80
2024/03/28 09:39:16;;;;;;;7.00;6.80;;;9.20;29.60;;;;;;4923823;29;20216;-80
2024/03/28 09:41:46;;;;;;;7.60;7.30;;;9.20;29.60;;;;;;4955953;29;20267;-80
2024/03/28 09:44:30;;;;;;;6.77;6.57;;;9.20;28.60;;;;;;4931518;29;20463;-79
2024/03/28 09:46:58;;;;;;;7.77;7.57;;;9.10;29.10;;;;;;4941189;29;20432;-79
2024/03/28 09:49:26;;;;;;;7.10;6.80;;;9.10;29.70;;;;;;4933544;29;20456;-79
2024/03/28 09:51:55;;;;;;;6.37;6.17;;;9.10;29.30;;;;;;4931340;29;20863;-79
2024/03/28 09:54:21;;;;;;;6.90;6.70;;;9.20;28.40;;;;;;4947455;29;20519;-80
2024/03/28 09:56:47;;;;;;;7.07;6.87;;;9.10;28.10;;;;;;4940378;29;20432;-80
2024/03/28 09:59:13;;;;;;;15.47;14.10;;;9.10;28.50;;;;;;4937073;29;20488;-80
2024/03/28 10:01:41;;;;;;;7.77;7.27;;;9.20;27.90;;;;;;4923719;29;20434;-79
2024/03/28 10:04:16;;;;;;;7.00;6.80;;;9.30;27.70;;;;;;4918858;29;20433;-79
2024/03/28 10:06:49;;;;;;;8.07;7.77;;;9.30;27.10;;;;;;4922809;29;20423;-79
2024/03/28 10:09:15;;;;;;;7.73;7.53;;;9.40;27.00;;;;;;4935412;29;20448;-80
2024/03/28 10:11:41;;;;;;;7.57;7.33;;;9.50;27.00;;;;;;4915712;29;20444;-81
2024/03/28 10:14:14;;;;;;;7.50;7.30;;;9.50;26.70;;;;;;4937434;29;20444;-80
2024/03/28 10:16:41;;;;;;;7.13;6.93;;;9.60;25.60;;;;;;4940587;29;20439;-81
2024/03/28 10:19:08;;;;;;;6.63;6.43;;;9.50;25.10;;;;;;4928951;29;20562;-80
2024/03/28 10:21:34;;;;;;;7.53;7.10;;;9.50;24.90;;;;;;4929656;29;20929;-82
2024/03/28 10:24:05;;;;;;;7.20;7.00;;;9.50;25.20;;;;;;4940158;29;20430;-82
2024/03/28 10:26:33;;;;;;;7.00;6.80;;;9.60;25.40;;;;;;4931152;29;20215;-81
2024/03/28 10:28:59;;;;;;;6.90;6.70;;;9.80;24.50;;;;;;4932228;29;20455;-83
2024/03/28 10:31:26;;;;;;;7.00;6.80;;;9.90;23.90;;;;;;4937557;29;20446;-80
2024/03/28 10:33:52;;;;;;;6.27;6.10;;;9.90;22.60;;;;;;4938737;29;20208;-78
2024/03/28 10:36:24;;;;;;;7.00;6.70;;;10.00;21.10;;;;;;4956131;29;20423;-82
2024/03/28 10:39:03;;;;;;;7.33;7.13;;;10.00;22.00;;;;;;4948267;29;20258;-80
2024/03/28 10:41:33;;;;;;;6.43;6.10;;;10.20;22.10;;;;;;4933481;29;20448;-79
2024/03/28 10:44:01;;;;;;;6.47;6.10;;;10.30;21.10;;;;;;4928220;29;20936;-79
2024/03/28 10:46:28;;;;;;;6.63;6.43;;;10.40;20.00;;;;;;4950895;29;20438;-80
2024/03/28 10:48:57;;;;;;;6.50;6.30;;;10.40;19.90;;;;;;4948446;29;20447;-78
2024/03/28 10:51:41;;;;;;;6.23;6.13;;;10.40;20.00;;;;;;4933052;29;20463;-78
2024/03/28 10:54:20;;;;;;;6.37;6.17;;;10.40;20.20;;;;;;4941846;29;20886;-80
2024/03/28 10:56:46;;;;;;;7.50;6.97;;;10.50;19.40;;;;;;4961925;29;20412;-79
2024/03/28 10:59:14;;;;;;;6.50;6.30;;;10.60;19.40;;;;;;4938026;29;20485;-79
2024/03/28 11:01:40;;;;;;;6.70;6.30;;;10.60;18.70;;;;;;4942476;29;20426;-79
2024/03/28 11:04:11;;;;;;;7.30;7.10;;;10.70;18.10;;;;;;4935327;29;20423;-79
2024/03/28 11:06:37;;;;;;;6.73;6.33;;;10.80;17.70;;;;;;4930141;29;20432;-80
2024/03/28 11:09:03;;;;;;;6.43;6.23;;;10.90;18.00;;;;;;4955136;29;20446;-80
2024/03/28 11:11:30;;;;;;;6.50;6.30;;;11.10;17.70;;;;;;4949458;29;20451;-80
2024/03/28 11:13:57;;;;;;;5.90;5.70;;;11.10;17.20;;;;;;4941943;29;20427;-80
2024/03/28 11:16:23;;;;;;;6.47;6.23;;;11.20;17.70;;;;;;4936124;29;20427;-80
2024/03/28 11:18:49;;;;;;;6.13;5.83;;;11.30;17.40;;;;;;4932183;23;20527;-78
2024/03/28 11:21:28;;;;;;;6.67;6.47;;;11.40;16.30;;;;;;4890413;29;20792;-78
2024/03/28 11:23:54;;;;;;;6.83;6.37;;;11.50;15.90;;;;;;4882612;29;20501;-78
2024/03/28 11:26:21;;;;;;;6.77;6.57;;;11.70;16.00;;;;;;4882773;29;20438;-78
2024/03/28 11:28:47;;;;;;;6.40;6.20;;;11.80;14.80;;;;;;4899403;29;20539;-79
2024/03/28 11:31:23;;;;;;;6.40;6.20;;;11.90;14.40;;;;;;4890298;29;20882;-79
2024/03/28 11:33:58;;;;;;;6.60;6.40;;;11.90;14.20;;;;;;4883752;29;20186;-78
2024/03/28 11:36:30;;;;;;;5.93;5.73;;;12.00;13.70;;;;;;4898905;29;20425;-80
2024/03/28 11:38:56;;;;;;;7.33;7.13;;;12.00;13.90;;;;;;4882343;29;20855;-79
2024/03/28 11:41:22;;;;;;;7.83;7.63;;;12.10;13.40;;;;;;4907665;29;20515;-78
2024/03/28 11:43:48;;;;;;;6.80;6.50;;;12.10;13.50;;;;;;4902767;29;20188;-79
2024/03/28 11:46:14;;;;;;;6.47;6.27;;;12.20;12.20;;;;;;4884719;29;20437;-78
2024/03/28 11:48:40;;;;;;;6.23;6.03;;;12.30;12.20;;;;;;4883823;29;20456;-79
2024/03/28 11:51:06;;;;;;;6.33;6.13;;;12.20;12.10;;;;;;4901221;29;20421;-78
2024/03/28 11:53:41;;;;;;;6.33;6.13;;;12.30;12.80;;;;;;4883830;29;20192;-79
2024/03/28 11:56:12;;;;;;;6.80;6.60;;;12.40;12.30;;;;;;4900610;29;20522;-79
2024/03/28 11:58:39;;;;;;;7.00;6.80;;;12.50;11.70;;;;;;4883687;29;20477;-78
2024/03/28 12:01:05;;;;;;;6.67;6.47;;;12.50;12.30;;;;;;4891136;29;20420;-79
2024/03/28 12:03:31;;;;;;;6.47;6.27;;;12.70;11.40;;;;;;4903775;29;20436;-79
2024/03/28 12:05:59;;;;;;;5.83;5.60;;;12.70;11.00;;;;;;4919759;29;20453;-79
2024/03/28 12:08:27;;;;;;;6.00;5.80;;;12.80;11.10;;;;;;4920173;29;20204;-79
2024/03/28 12:10:59;;;;;;;6.77;6.47;;;13.00;10.70;;;;;;4920479;29;20827;-79
2024/03/28 12:13:24;;;;;;;6.37;6.17;;;13.00;10.00;;;;;;4919298;29;20523;-79
2024/03/28 12:15:58;;;;;;;6.37;6.17;;;13.10;9.90;;;;;;4901414;29;20546;-79
2024/03/28 12:18:24;;;;;;;7.00;6.80;;;13.20;11.20;;;;;;4892781;29;20220;-78
2024/03/28 12:21:00;;;;;;;6.57;6.37;;;13.30;9.10;;;;;;4904141;29;20435;-79
2024/03/28 12:23:26;;;;;;;5.87;5.67;;;13.30;8.20;;;;;;4918807;29;20183;-79
2024/03/28 12:25:52;;;;;;;6.77;6.57;;;13.30;8.50;;;;;;4903315;29;20436;-79
2024/03/28 12:28:20;;;;;;;6.67;6.47;;;13.30;8.50;;;;;;4912539;29;20445;-79
2024/03/28 12:30:54;;;;;;;6.43;6.23;;;13.30;8.50;;;;;;4903222;29;20176;-78
2024/03/28 12:33:20;;;;;;;6.90;6.70;;;13.20;8.50;;;;;;4910707;29;20430;-79
2024/03/28 12:35:51;;;;;;;5.90;5.80;;;13.10;9.00;;;;;;4901072;29;20425;-79
2024/03/28 12:38:19;;;;;;;6.77;6.57;;;13.00;9.40;;;;;;4891705;29;20492;-80
2024/03/28 12:40:50;;;;;;;6.90;6.47;;;13.10;9.50;;;;;;4900056;29;20424;-79
2024/03/28 12:43:17;;;;;;;5.60;5.50;;;13.20;9.80;;;;;;4899772;29;20423;-79
2024/03/28 12:45:42;;;;;;;5.80;5.70;;;13.20;10.40;;;;;;4906174;29;20425;-79
2024/03/28 12:48:17;;;;;;;7.43;7.13;;;13.30;10.00;;;;;;4898798;29;20429;-79
2024/03/28 12:50:45;;;;;;;7.40;7.00;;;13.20;10.50;;;;;;4886466;29;20223;-79
2024/03/28 12:53:11;;;;;;;6.50;6.37;;;13.20;10.00;;;;;;4898033;29;20429;-78
2024/03/28 12:55:38;;;;;;;6.37;5.87;;;13.00;7.70;;;;;;4880451;29;20426;-79
2024/03/28 12:58:03;;;;;;;5.93;5.73;;;12.80;7.90;;;;;;4897423;29;21122;-78
2024/03/28 13:00:29;;;;;;;6.60;6.40;;;12.90;8.30;;;;;;4897846;29;20483;-78
2024/03/28 13:02:54;;;;;;;6.00;5.80;;;13.00;6.90;;;;;;4910400;29;20193;-78
2024/03/28 13:05:20;;;;;;;6.20;5.90;;;13.00;7.20;;;;;;4918186;29;20192;-79
2024/03/28 13:07:46;;;;;;;6.47;6.37;;;13.20;6.70;;;;;;4912218;29;20598;-78
2024/03/28 13:10:11;;;;;;;6.57;6.30;;;13.30;5.60;;;;;;4921149;29;20209;-78
2024/03/28 13:12:37;;;;;;;7.07;6.87;;;13.30;5.40;;;;;;4904995;29;20211;-79
2024/03/28 13:15:04;;;;;;;6.80;6.60;;;13.40;5.80;;;;;;4912758;29;20191;-79
2024/03/28 13:17:29;;;;;;;6.70;6.50;;;13.50;6.40;;;;;;4889335;29;20476;-79
2024/03/28 13:19:55;;;;;;;6.50;6.30;;;13.50;6.20;;;;;;4898144;29;20460;-79
2024/03/28 13:22:21;;;;;;;6.83;6.53;;;13.60;6.40;;;;;;4921187;29;20188;-78
2024/03/28 13:24:46;;;;;;;6.57;6.27;;;13.50;6.70;;;;;;4919514;29;20205;-78
2024/03/28 13:27:12;;;;;;;6.20;5.90;;;13.40;6.60;;;;;;4920467;29;20479;-78
2024/03/28 13:29:40;;;;;;;6.30;6.10;;;13.30;6.60;;;;;;4903352;29;20577;-78
2024/03/28 13:32:06;;;;;;;6.17;6.07;;;13.40;7.50;;;;;;4920861;29;20225;-78
2024/03/28 13:34:31;;;;;;;6.00;5.70;;;13.40;6.50;;;;;;4920204;29;20420;-78
2024/03/28 13:36:57;;;;;;;6.07;5.87;;;13.40;6.30;;;;;;4914469;29;21026;-78
2024/03/28 13:39:23;;;;;;;6.27;6.07;;;13.40;6.70;;;;;;4916948;29;20228;-78
2024/03/28 13:41:49;;;;;;;5.97;5.77;;;13.40;6.70;;;;;;4918989;29;20456;-77
2024/03/28 13:44:15;;;;;;;5.60;5.50;;;13.40;6.90;;;;;;4920142;29;20233;-78
2024/03/28 13:46:42;;;;;;;5.90;5.70;;;13.40;6.50;;;;;;4903150;29;20557;-78
2024/03/28 13:49:29;;;;;;;5.47;5.33;;;13.50;7.40;;;;;;4913663;29;20221;-77
2024/03/28 13:52:00;;;;;;;6.17;5.93;;;13.50;8.70;;;;;;4892216;29;20422;-78
2024/03/28 13:54:28;;;;;;;6.40;6.20;;;13.50;8.70;;;;;;4899805;29;20424;-78
2024/03/28 13:56:53;;;;;;;6.60;6.40;;;13.50;9.60;;;;;;4903381;29;20433;-78
2024/03/28 13:59:19;;;;;;;5.53;5.40;;;13.40;10.30;;;;;;4911639;29;20485;-78
2024/03/28 14:01:45;;;;;;;6.10;5.90;;;13.40;6.30;;;;;;4909465;29;20185;-77
2024/03/28 14:04:13;;;;;;;6.13;6.03;;;13.40;7.30;;;;;;4912470;29;20193;-77
2024/03/28 14:06:42;;;;;;;5.47;5.37;;;13.50;7.00;;;;;;4883617;29;20421;-77
2024/03/28 14:09:08;;;;;;;5.60;5.40;;;13.50;8.00;;;;;;4905138;29;20441;-77
2024/03/28 14:11:37;;;;;;;4.97;4.80;;;13.40;4.60;;;;;;4892430;29;20489;-77
2024/03/28 14:14:03;;;;;;;5.17;4.87;;;13.50;4.60;;;;;;4899920;29;20513;-78
2024/03/28 14:16:32;;;;;;;5.17;5.07;;;13.40;5.00;;;;;;4902574;29;20430;-77
2024/03/28 14:18:58;;;;;;;5.80;5.60;;;13.40;6.40;;;;;;4898561;29;20576;-78
2024/03/28 14:21:25;;;;;;;5.13;5.03;;;13.30;7.80;;;;;;4899687;29;20449;-78
2024/03/28 14:23:52;;;;;;;5.53;5.43;;;13.20;9.20;;;;;;4895404;29;20192;-77
2024/03/28 14:26:17;;;;;;;5.87;5.67;;;12.90;11.40;;;;;;4906450;29;20981;-78
2024/03/28 14:28:43;;;;;;;4.93;4.83;;;12.70;11.00;;;;;;4899181;29;20597;-78
2024/03/28 14:31:09;;;;;;;5.10;4.90;;;12.60;11.80;;;;;;4907225;29;20245;-77
2024/03/28 14:33:35;;;;;;;5.30;5.00;;;12.70;11.20;;;;;;4907163;29;20194;-78
2024/03/28 14:36:06;;;;;;;5.33;5.13;;;12.70;12.70;;;;;;4898787;29;20500;-78
2024/03/28 14:38:32;;;;;;;5.67;5.47;;;12.70;12.20;;;;;;4900199;29;20469;-78
2024/03/28 14:41:05;;;;;;;4.67;4.57;;;12.80;10.00;;;;;;4918470;29;20808;-79
2024/03/28 14:43:35;;;;;;;5.00;4.80;;;12.80;9.90;;;;;;4899029;29;20188;-78